Time;durP1;ratioP1;P1;durP2;ratioP2;P2;SDS_P1;SDS_P2;PMS_P1;PMS_P2;Temp;Humidity;BMP_temperature;BMP_pressure;BME280_temperature;BME280_humidity;BME280_pressure;Samples;Min_cycle;Max_cycle;Signal;HPM_P1;HPM_P2
2023/01/20 00:01:46;;;;;;;161.30;121.80;;;;;;;-0.88;74.71;99838.58;110903;1260;23682;-77
2023/01/20 00:04:17;;;;;;;172.80;125.50;;;;;;;-0.87;74.96;99838.75;110538;1261;22727;-77
2023/01/20 00:06:46;;;;;;;186.40;130.50;;;;;;;-0.83;75.11;99839.42;110573;1261;21972;-78
2023/01/20 00:09:16;;;;;;;173.70;121.50;;;;;;;-0.79;75.18;99846.44;110571;1262;22015;-77
2023/01/20 00:11:45;;;;;;;173.10;121.40;;;;;;;-0.76;75.19;99847.13;110976;1260;21994;-78
2023/01/20 00:14:13;;;;;;;176.90;125.40;;;;;;;-0.76;75.15;99847.63;110637;1262;23097;-76
2023/01/20 00:16:41;;;;;;;187.70;126.30;;;;;;;-0.79;75.09;99849.34;110813;1262;23716;-78
2023/01/20 00:19:13;;;;;;;186.40;127.40;;;;;;;-0.77;75.36;99849.84;110726;1254;23042;-77
2023/01/20 00:21:41;;;;;;;169.50;122.70;;;;;;;-0.72;75.46;99844.73;110779;1261;22028;-77
2023/01/20 00:24:09;;;;;;;169.30;118.50;;;;;;;-0.67;75.38;99849.69;110631;1262;23664;-78
2023/01/20 00:26:37;;;;;;;172.00;121.20;;;;;;;-0.63;75.33;99851.56;110639;1262;21983;-77
2023/01/20 00:29:05;;;;;;;169.30;118.40;;;;;;;-0.60;75.37;99851.39;110476;1262;23464;-77
2023/01/20 00:31:34;;;;;;;167.30;120.10;;;;;;;-0.57;75.23;99852.77;110635;1262;24342;-77
2023/01/20 00:34:03;;;;;;;167.80;118.40;;;;;;;-0.58;75.13;99855.48;110709;1262;22236;-77
2023/01/20 00:36:31;;;;;;;171.20;123.10;;;;;;;-0.57;75.03;99860.61;110865;1262;21989;-76
2023/01/20 00:39:01;;;;;;;164.80;115.10;;;;;;;-0.57;75.04;99860.63;110892;1262;21831;-77
2023/01/20 00:41:29;;;;;;;157.00;117.00;;;;;;;-0.55;75.05;99862.33;110677;1261;23719;-77
2023/01/20 00:43:57;;;;;;;158.70;115.00;;;;;;;-0.55;75.01;99865.91;110666;1262;21970;-78
2023/01/20 00:46:26;;;;;;;161.30;116.50;;;;;;;-0.55;74.93;99864.89;110758;1262;23621;-77
2023/01/20 00:48:54;;;;;;;158.30;112.80;;;;;;;-0.55;74.93;99864.89;110713;1262;22741;-77
2023/01/20 00:51:22;;;;;;;151.90;113.60;;;;;;;-0.54;74.88;99864.37;110155;1262;22997;-79
2023/01/20 00:53:50;;;;;;;148.80;108.30;;;;;;;-0.55;74.88;99866.94;110649;1262;21995;-77
2023/01/20 00:56:18;;;;;;;158.90;115.50;;;;;;;-0.55;74.85;99867.28;110498;1262;22072;-79
2023/01/20 00:58:47;;;;;;;147.30;111.00;;;;;;;-0.55;74.89;99867.80;110341;1268;22735;-77
2023/01/20 01:01:15;;;;;;;153.60;112.80;;;;;;;-0.55;74.81;99871.55;109869;1268;22241;-77
2023/01/20 01:03:43;;;;;;;155.60;111.20;;;;;;;-0.56;74.87;99875.14;109809;1268;22094;-78
2023/01/20 01:06:15;;;;;;;146.30;108.30;;;;;;;-0.57;74.88;99877.54;110190;1267;22965;-76
2023/01/20 01:08:43;;;;;;;;;;;;;;;-0.57;74.95;99878.91;109700;1267;23577;-76
2023/01/20 01:11:12;;;;;;;151.80;104.80;;;;;;;-0.65;74.97;99883.52;110257;1264;22057;-76
2023/01/20 01:13:40;;;;;;;151.50;105.50;;;;;;;-0.66;75.00;99885.56;109930;1267;23018;-77
2023/01/20 01:16:11;;;;;;;144.40;104.10;;;;;;;-0.65;74.92;99884.38;109715;1263;21971;-76
2023/01/20 01:18:40;;;;;;;143.00;103.80;;;;;;;-0.64;75.05;99890.02;110737;1262;23003;-76
2023/01/20 01:21:12;;;;;;;141.10;104.70;;;;;;;-0.63;75.04;99891.71;110853;1262;21969;-77
2023/01/20 01:23:40;;;;;;;147.50;105.60;;;;;;;-0.64;74.93;99887.27;110356;1261;23029;-76
2023/01/20 01:26:09;;;;;;;145.00;104.50;;;;;;;-0.64;74.86;99887.96;110304;1262;23706;-76
2023/01/20 01:28:37;;;;;;;150.60;108.50;;;;;;;-0.65;74.93;99891.21;110471;1262;21986;-76
2023/01/20 01:31:07;;;;;;;149.70;108.90;;;;;;;-0.65;74.90;99891.38;110394;1262;22246;-76
2023/01/20 01:33:35;;;;;;;151.80;111.40;;;;;;;-0.65;74.89;99893.44;110364;1262;22662;-76
2023/01/20 01:36:04;;;;;;;158.30;113.60;;;;;;;-0.66;74.88;99895.32;110539;1262;21979;-78
2023/01/20 01:38:32;;;;;;;146.40;110.10;;;;;;;-0.66;74.99;99896.67;110610;1262;21980;-75
2023/01/20 01:41:00;;;;;;;162.40;115.90;;;;;;;-0.66;74.93;99898.73;110834;1262;23796;-77
2023/01/20 01:43:31;;;;;;;146.10;109.40;;;;;;;-0.67;74.97;99901.30;110564;1249;23015;-76
2023/01/20 01:46:00;;;;;;;149.50;109.50;;;;;;;-0.67;74.91;99900.10;110364;1262;23693;-76
2023/01/20 01:48:42;;;;;;;146.10;111.60;;;;;;;-0.69;74.94;99902.83;110345;1258;21934;-77
2023/01/20 01:51:27;;;;;;;144.60;107.20;;;;;;;-0.70;74.94;99904.02;110512;1262;21975;-76
2023/01/20 01:53:59;;;;;;;;;;;;;;;-0.71;75.04;99907.27;110522;1262;23126;-76
2023/01/20 01:56:28;;;;;;;140.40;102.60;;;;;;;-0.80;75.00;99901.97;110817;1262;23009;-76
2023/01/20 01:59:01;;;;;;;141.30;103.30;;;;;;;-0.84;75.05;99896.50;110702;1262;21967;-77
2023/01/20 02:01:34;;;;;;;141.50;101.70;;;;;;;-0.85;75.08;99898.37;110810;1262;22152;-76
2023/01/20 02:04:12;;;;;;;139.20;103.20;;;;;;;-0.86;75.03;99899.58;110498;1267;22005;-77
2023/01/20 02:06:58;;;;;;;146.60;108.10;;;;;;;-0.87;75.01;99900.59;110201;1267;22254;-78
2023/01/20 02:09:27;;;;;;;140.80;104.10;;;;;;;-0.88;74.97;99901.45;110061;1262;23697;-78
2023/01/20 02:12:01;;;;;;;150.80;104.30;;;;;;;-0.88;75.00;99901.09;110189;1267;24204;-79
2023/01/20 02:14:44;;;;;;;149.40;107.80;;;;;;;-0.88;74.96;99900.07;110146;1267;21989;-77
2023/01/20 02:17:30;;;;;;;128.80;99.80;;;;;;;-0.91;75.00;99900.06;109894;1267;22069;-76
2023/01/20 02:20:35;;;;;;;137.10;101.40;;;;;;;-0.93;75.10;99897.83;110258;1267;23996;-77
2023/01/20 02:23:55;;;;;;;147.80;104.40;;;;;;;-0.97;75.07;99894.59;110727;1262;22051;-77
2023/01/20 02:26:44;;;;;;;130.30;97.90;;;;;;;-1.03;75.21;99894.92;110802;1262;21973;-77
2023/01/20 02:29:30;;;;;;;137.50;102.40;;;;;;;-1.04;75.33;99904.66;110838;1262;21980;-76
2023/01/20 02:32:43;;;;;;;148.30;113.70;;;;;;;-1.03;75.40;99910.13;110643;1262;21994;-76
2023/01/20 02:35:45;;;;;;;145.60;105.30;;;;;;;-1.04;75.37;99915.25;110545;1262;22000;-75
2023/01/20 02:38:44;;;;;;;131.10;101.30;;;;;;;-1.03;75.38;99923.44;110323;1262;23724;-75
2023/01/20 02:41:34;;;;;;;135.00;104.50;;;;;;;-1.06;75.33;99926.50;110426;1262;22052;-75
2023/01/20 02:44:35;;;;;;;149.60;105.80;;;;;;;-1.10;75.16;99929.91;110615;1260;23696;-76
2023/01/20 02:47:35;;;;;;;131.50;98.50;;;;;;;-1.14;75.13;99936.05;110635;1259;23079;-75
2023/01/20 02:50:19;;;;;;;134.30;99.80;;;;;;;-1.20;75.12;99938.08;110202;1266;21980;-76
2023/01/20 02:52:56;;;;;;;132.50;99.00;;;;;;;-1.23;75.10;99936.86;109612;1271;22162;-76
2023/01/20 02:55:39;;;;;;;137.50;99.70;;;;;;;-1.26;75.07;99936.70;109766;1266;22813;-76
2023/01/20 02:58:36;;;;;;;133.50;98.40;;;;;;;-1.29;75.07;99940.43;109615;1271;21986;-77
2023/01/20 03:01:31;;;;;;;133.50;98.70;;;;;;;-1.32;75.11;99942.48;109929;1271;22567;-78
2023/01/20 03:04:02;;;;;;;140.80;102.10;;;;;;;-1.35;75.09;99949.47;109979;1270;22835;-76
2023/01/20 03:06:45;;;;;;;136.00;98.90;;;;;;;-1.37;75.02;99955.09;109761;1270;23057;-76
2023/01/20 03:09:20;;;;;;;127.10;97.50;;;;;;;-1.41;74.98;99955.58;109931;1269;24314;-77
2023/01/20 03:11:56;;;;;;;136.60;100.20;;;;;;;-1.43;75.04;99958.81;109848;1268;23756;-76
2023/01/20 03:14:25;;;;;;;137.40;100.70;;;;;;;-1.46;75.05;99958.63;109860;1268;22174;-76
2023/01/20 03:16:53;;;;;;;131.80;98.40;;;;;;;-1.49;74.97;99962.54;110148;1268;22188;-77
2023/01/20 03:19:21;;;;;;;138.40;100.10;;;;;;;-1.51;75.02;99960.98;109768;1268;21985;-79
2023/01/20 03:21:49;;;;;;;132.80;98.90;;;;;;;-1.53;75.05;99959.80;109815;1268;21988;-77
2023/01/20 03:24:17;;;;;;;134.90;99.70;;;;;;;-1.55;75.07;99962.68;110121;1268;21984;-77
2023/01/20 03:26:45;;;;;;;129.70;98.00;;;;;;;-1.58;74.93;99962.49;110155;1262;21939;-77
2023/01/20 03:29:14;;;;;;;136.60;100.50;;;;;;;-1.61;74.92;99966.05;110764;1262;22964;-77
2023/01/20 03:31:57;;;;;;;139.30;101.50;;;;;;;-1.64;75.06;99967.76;110648;1262;21967;-78
2023/01/20 03:34:30;;;;;;;137.60;98.50;;;;;;;-1.67;75.10;99966.88;110689;1262;21956;-78
2023/01/20 03:36:59;;;;;;;138.40;96.60;;;;;;;-1.69;75.16;99964.13;110551;1262;23752;-78
2023/01/20 03:39:28;;;;;;;142.10;102.00;;;;;;;-1.71;75.14;99964.80;110604;1262;21967;-78
2023/01/20 03:42:06;;;;;;;135.10;99.80;;;;;;;-1.73;75.15;99968.05;110645;1261;23350;-76
2023/01/20 03:45:04;;;;;;;122.00;92.30;;;;;;;-1.77;75.08;99969.20;110895;1262;21984;-78
2023/01/20 03:48:16;;;;;;;125.60;93.40;;;;;;;-1.81;75.18;99967.83;110605;1262;21988;-77
2023/01/20 03:50:53;;;;;;;136.60;95.20;;;;;;;-1.85;75.15;99968.30;110146;1270;21877;-76
2023/01/20 03:53:57;;;;;;;131.60;98.50;;;;;;;-1.87;75.24;99973.75;109925;1270;22426;-75
2023/01/20 03:56:45;;;;;;;133.80;99.80;;;;;;;-1.89;75.34;99978.35;109438;1274;21991;-78
2023/01/20 03:59:16;;;;;;;136.90;96.60;;;;;;;-1.90;75.25;99976.80;109245;1274;22089;-77
2023/01/20 04:01:44;;;;;;;136.20;102.10;;;;;;;-1.89;75.25;99978.34;109143;1274;22145;-76
2023/01/20 04:04:18;;;;;;;137.70;102.70;;;;;;;-1.88;75.32;99976.30;109284;1274;21998;-76
2023/01/20 04:06:49;;;;;;;144.20;107.50;;;;;;;-1.88;75.38;99982.27;109078;1274;22757;-76
2023/01/20 04:09:25;;;;;;;135.00;100.30;;;;;;;-1.87;75.40;99985.02;109448;1274;22411;-77
2023/01/20 04:11:54;;;;;;;134.50;100.90;;;;;;;-1.86;75.33;99988.08;109539;1273;22931;-77
2023/01/20 04:14:22;;;;;;;134.80;98.80;;;;;;;-1.84;75.37;99991.84;109146;1274;22309;-77
2023/01/20 04:16:54;;;;;;;132.30;95.80;;;;;;;-1.83;75.37;99996.12;109206;1274;21984;-78
2023/01/20 04:19:23;;;;;;;131.60;98.60;;;;;;;-1.83;75.47;100000.40;109371;1274;23758;-76
2023/01/20 04:22:29;;;;;;;135.10;97.50;;;;;;;-1.81;75.53;100011.50;109680;1269;21970;-77
2023/01/20 04:25:13;;;;;;;133.40;97.10;;;;;;;-1.79;75.60;100013.38;109514;1268;21987;-76
2023/01/20 04:27:41;;;;;;;127.70;97.80;;;;;;;-1.77;75.65;100012.03;109429;1273;21994;-76
2023/01/20 04:30:11;;;;;;;134.50;101.30;;;;;;;-1.73;75.58;100016.31;109287;1273;23513;-76
2023/01/20 04:32:39;;;;;;;141.50;98.90;;;;;;;-1.72;75.61;100022.64;109255;1269;24314;-77
2023/01/20 04:35:19;;;;;;;137.70;98.00;;;;;;;-1.71;75.67;100028.44;109743;1260;23048;-76
2023/01/20 04:37:47;;;;;;;131.50;95.20;;;;;;;-1.73;75.58;100027.58;109929;1267;21979;-77
2023/01/20 04:40:15;;;;;;;136.90;95.10;;;;;;;-1.72;75.65;100029.30;109820;1268;21977;-77
2023/01/20 04:42:43;;;;;;;136.30;94.60;;;;;;;-1.71;75.67;100029.98;110170;1268;21984;-77
2023/01/20 04:45:15;;;;;;;141.90;100.60;;;;;;;-1.68;75.74;100035.63;110025;1266;22046;-77
2023/01/20 04:47:43;;;;;;;137.60;95.90;;;;;;;-1.66;75.69;100039.06;109971;1268;21992;-77
2023/01/20 04:50:13;;;;;;;141.70;100.80;;;;;;;-1.64;75.63;100041.80;110026;1268;22190;-78
2023/01/20 04:52:42;;;;;;;147.60;98.90;;;;;;;-1.62;75.62;100047.29;109788;1268;23782;-76
2023/01/20 04:55:11;;;;;;;145.90;102.50;;;;;;;-1.62;75.56;100054.95;109985;1267;22466;-76
2023/01/20 04:57:39;;;;;;;143.40;101.40;;;;;;;-1.68;75.49;100062.09;109971;1267;21978;-77
2023/01/20 05:00:08;;;;;;;138.90;100.50;;;;;;;-1.71;75.51;100062.05;109965;1267;22002;-78
2023/01/20 05:02:36;;;;;;;127.60;95.90;;;;;;;-1.70;75.63;100061.03;110410;1261;21985;-78
2023/01/20 05:05:04;;;;;;;129.50;96.10;;;;;;;-1.69;75.72;100062.42;110571;1254;21979;-77
2023/01/20 05:07:32;;;;;;;167.90;111.50;;;;;;;-1.67;75.72;100067.38;110823;1260;21976;-77
2023/01/20 05:09:59;;;;;;;139.00;95.60;;;;;;;-1.66;75.75;100066.89;110803;1261;21983;-77
2023/01/20 05:12:27;;;;;;;134.60;93.10;;;;;;;-1.66;75.61;100069.43;110941;1261;22937;-76
2023/01/20 05:14:55;;;;;;;122.90;91.90;;;;;;;-1.66;75.66;100073.36;110737;1257;22010;-77
2023/01/20 05:17:23;;;;;;;122.90;91.60;;;;;;;-1.63;75.71;100074.39;110875;1261;22031;-76
2023/01/20 05:19:51;;;;;;;122.50;94.90;;;;;;;-1.61;75.56;100074.41;110589;1262;24058;-76
2023/01/20 05:22:19;;;;;;;126.80;94.80;;;;;;;-1.60;75.49;100076.14;110851;1262;22321;-77
2023/01/20 05:24:47;;;;;;;134.50;97.70;;;;;;;-1.60;75.42;100077.68;110360;1266;21997;-75
2023/01/20 05:27:14;;;;;;;129.00;97.60;;;;;;;-1.60;75.43;100085.00;109923;1268;23071;-76
2023/01/20 05:29:42;;;;;;;124.90;95.30;;;;;;;-1.61;75.43;100081.58;109465;1273;21998;-76
2023/01/20 05:32:10;;;;;;;137.40;101.30;;;;;;;-1.62;75.41;100083.96;109463;1271;21997;-76
2023/01/20 05:34:38;;;;;;;139.60;101.00;;;;;;;-1.62;75.35;100088.92;109649;1271;22003;-75
2023/01/20 05:37:17;;;;;;;132.50;98.00;;;;;;;-1.60;75.55;100099.67;109777;1271;24505;-75
2023/01/20 05:39:45;;;;;;;134.80;97.00;;;;;;;-1.62;75.41;100110.41;109634;1270;21980;-76
2023/01/20 05:42:14;;;;;;;136.30;95.10;;;;;;;-1.67;75.34;100119.93;109555;1266;23040;-75
2023/01/20 05:44:42;;;;;;;145.90;101.60;;;;;;;-1.69;75.44;100124.19;109605;1270;23036;-76
2023/01/20 05:47:10;;;;;;;156.30;113.30;;;;;;;-1.71;75.32;100124.16;109182;1263;23164;-76
2023/01/20 05:49:39;;;;;;;133.40;100.50;;;;;;;-1.73;75.26;100120.40;109543;1272;23734;-77
2023/01/20 05:52:06;;;;;;;144.30;107.70;;;;;;;-1.75;75.35;100118.16;109580;1267;23729;-76
2023/01/20 05:54:34;;;;;;;156.20;111.80;;;;;;;-1.74;75.41;100120.39;109883;1267;24375;-76
2023/01/20 05:57:04;;;;;;;140.70;100.60;;;;;;;-1.74;75.44;100124.30;109428;1271;23721;-77
2023/01/20 05:59:33;;;;;;;137.10;96.00;;;;;;;-1.77;75.40;100129.58;109557;1271;22036;-76
2023/01/20 06:02:01;;;;;;;133.50;98.40;;;;;;;-1.79;75.44;100131.27;109611;1268;21997;-76
2023/01/20 06:04:29;;;;;;;131.40;92.20;;;;;;;-1.80;75.33;100131.25;110156;1263;22058;-77
2023/01/20 06:06:57;;;;;;;120.10;90.20;;;;;;;-1.84;75.23;100126.61;110281;1265;22081;-76
2023/01/20 06:09:25;;;;;;;128.40;95.80;;;;;;;-1.90;75.19;100124.50;110286;1265;22992;-76
2023/01/20 06:11:53;;;;;;;129.60;97.10;;;;;;;-1.95;75.18;100131.95;110076;1266;21973;-75
2023/01/20 06:14:21;;;;;;;118.20;93.40;;;;;;;-2.02;75.19;100134.96;110152;1266;21979;-78
2023/01/20 06:16:49;;;;;;;117.70;90.50;;;;;;;-2.08;75.27;100136.79;110335;1266;21970;-78
2023/01/20 06:19:17;;;;;;;128.40;91.20;;;;;;;-2.12;75.24;100144.23;110516;1266;21984;-76
2023/01/20 06:21:46;;;;;;;125.10;96.20;;;;;;;-2.15;75.33;100145.41;110204;1264;22022;-76
2023/01/20 06:24:14;;;;;;;137.10;101.70;;;;;;;-2.16;75.48;100147.10;110069;1262;22992;-77
2023/01/20 06:26:43;;;;;;;141.10;103.60;;;;;;;-2.17;75.40;100148.12;110685;1262;23666;-75
2023/01/20 06:29:11;;;;;;;130.50;96.30;;;;;;;-2.19;75.48;100147.92;110429;1262;22008;-77
2023/01/20 06:31:39;;;;;;;135.40;98.20;;;;;;;-2.19;75.53;100147.58;110859;1262;23899;-77
2023/01/20 06:34:07;;;;;;;152.80;107.90;;;;;;;-2.17;75.58;100151.86;110500;1262;21943;-77
2023/01/20 06:36:35;;;;;;;152.20;111.30;;;;;;;-2.16;75.44;100150.68;110750;1262;23030;-77
2023/01/20 06:39:03;;;;;;;161.60;115.30;;;;;;;-2.16;75.42;100152.55;110476;1262;22237;-78
2023/01/20 06:41:31;;;;;;;170.70;119.60;;;;;;;-2.18;75.42;100152.71;110220;1268;22036;-79
2023/01/20 06:44:00;;;;;;;152.50;111.40;;;;;;;-2.20;75.33;100152.00;110181;1263;21988;-79
2023/01/20 06:46:27;;;;;;;145.10;106.70;;;;;;;-2.20;75.37;100145.34;110208;1267;22841;-77
2023/01/20 06:48:59;;;;;;;149.40;111.60;;;;;;;-2.21;75.38;100143.47;110044;1267;21993;-79
2023/01/20 06:51:29;;;;;;;149.50;111.50;;;;;;;-2.21;75.40;100138.35;109966;1268;22089;-78
2023/01/20 06:54:00;;;;;;;150.90;110.50;;;;;;;-2.23;75.46;100139.03;110162;1268;21979;-78
2023/01/20 06:56:27;;;;;;;146.30;109.40;;;;;;;-2.23;75.42;100141.58;110044;1268;22994;-78
2023/01/20 06:58:55;;;;;;;153.60;113.20;;;;;;;-2.22;75.44;100146.35;109490;1263;21969;-79
2023/01/20 07:01:30;;;;;;;153.30;115.10;;;;;;;-2.22;75.45;100152.83;110568;1263;23031;-79
2023/01/20 07:03:59;;;;;;;156.30;113.90;;;;;;;-2.22;75.43;100155.05;110639;1263;21999;-82
2023/01/20 07:06:34;;;;;;;151.70;113.50;;;;;;;-2.20;75.53;100158.48;110384;1263;22011;-81
2023/01/20 07:09:04;;;;;;;141.30;107.50;;;;;;;-2.18;75.55;100160.21;110800;1262;21982;-80
2023/01/20 07:11:36;;;;;;;147.90;107.50;;;;;;;-2.16;75.57;100161.09;110458;1263;23010;-77
2023/01/20 07:14:06;;;;;;;144.80;110.80;;;;;;;-2.15;75.49;100162.13;110712;1262;21975;-76
2023/01/20 07:16:35;;;;;;;152.50;111.90;;;;;;;-2.14;75.49;100164.52;110451;1263;21987;-75
2023/01/20 07:19:04;;;;;;;155.70;115.50;;;;;;;-2.13;75.52;100165.38;110410;1263;21963;-75
2023/01/20 07:21:32;;;;;;;153.40;114.30;;;;;;;-2.12;75.58;100169.65;110622;1263;21985;-76
2023/01/20 07:24:01;;;;;;;153.30;114.90;;;;;;;-2.09;75.52;100175.65;110453;1263;22016;-76
2023/01/20 07:26:30;;;;;;;151.10;113.80;;;;;;;-2.08;75.60;100179.59;110528;1261;21980;-77
2023/01/20 07:28:58;;;;;;;160.40;117.90;;;;;;;-2.05;75.59;100192.08;110470;1263;21997;-76
2023/01/20 07:31:28;;;;;;;167.20;121.40;;;;;;;-2.01;75.68;100199.61;110415;1263;22395;-77
2023/01/20 07:33:57;;;;;;;167.20;121.20;;;;;;;-1.97;75.68;100201.52;110609;1263;21968;-75
2023/01/20 07:36:25;;;;;;;157.20;120.70;;;;;;;-1.92;75.70;100205.50;110418;1262;21973;-76
2023/01/20 07:38:53;;;;;;;157.40;121.30;;;;;;;-1.86;75.81;100213.41;110523;1262;22005;-77
2023/01/20 07:41:21;;;;;;;165.70;123.20;;;;;;;-1.81;75.85;100222.86;110355;1262;23029;-77
2023/01/20 07:43:51;;;;;;;175.40;129.80;;;;;;;-1.74;75.84;100238.95;110559;1262;22172;-76
2023/01/20 07:46:19;;;;;;;190.20;132.40;;;;;;;-1.67;75.97;100240.40;110532;1262;23052;-76
2023/01/20 07:48:48;;;;;;;177.70;129.50;;;;;;;-1.58;76.12;100238.77;110502;1263;22017;-76
2023/01/20 07:51:17;;;;;;;175.70;129.50;;;;;;;-1.49;76.13;100237.50;110512;1262;21996;-75
2023/01/20 07:53:48;;;;;;;197.40;142.20;;;;;;;-1.44;76.01;100239.25;110347;1262;23607;-76
2023/01/20 07:56:26;;;;;;;172.90;127.50;;;;;;;-1.38;76.00;100236.58;110490;1262;22121;-75
2023/01/20 07:58:55;;;;;;;190.80;132.80;;;;;;;-1.29;76.18;100234.77;109840;1268;21973;-76
2023/01/20 08:01:29;;;;;;;180.10;123.00;;;;;;;-1.16;76.23;100236.75;109868;1268;22979;-76
2023/01/20 08:04:01;;;;;;;185.50;129.60;;;;;;;-1.06;76.21;100242.14;109799;1268;22017;-77
2023/01/20 08:06:29;;;;;;;173.10;116.30;;;;;;;-0.96;76.09;100252.80;110081;1266;22244;-76
2023/01/20 08:09:01;;;;;;;141.90;106.10;;;;;;;-0.87;76.14;100258.02;109913;1268;21988;-77
2023/01/20 08:11:31;;;;;;;143.40;105.50;;;;;;;-0.77;76.16;100262.00;109871;1268;22012;-78
2023/01/20 08:13:58;;;;;;;145.40;106.30;;;;;;;-0.68;76.18;100262.23;109948;1268;23055;-79
2023/01/20 08:16:26;;;;;;;142.00;108.10;;;;;;;-0.59;76.02;100266.55;109769;1262;22413;-76
2023/01/20 08:18:54;;;;;;;156.10;120.00;;;;;;;-0.48;76.00;100269.86;110450;1262;21976;-75
2023/01/20 08:21:29;;;;;;;121.80;98.40;;;;;;;-0.37;75.85;100274.89;110569;1262;23621;-77
2023/01/20 08:24:00;;;;;;;115.70;91.00;;;;;;;-0.29;75.66;100276.48;110651;1261;21964;-76
2023/01/20 08:26:29;;;;;;;118.80;95.00;;;;;;;-0.21;75.61;100280.61;110614;1261;21970;-77
2023/01/20 08:29:05;;;;;;;120.80;95.20;;;;;;;-0.12;75.51;100281.35;110572;1262;22010;-79
2023/01/20 08:31:34;;;;;;;119.90;92.70;;;;;;;-0.05;75.41;100282.92;110542;1262;23661;-77
2023/01/20 08:34:04;;;;;;;104.60;85.50;;;;;;;0.02;75.21;100290.47;110643;1249;23030;-75
2023/01/20 08:36:35;;;;;;;113.40;87.80;;;;;;;0.10;75.20;100300.09;110488;1260;21954;-76
2023/01/20 08:39:07;;;;;;;109.50;84.80;;;;;;;0.18;75.06;100303.21;109826;1268;23725;-77
2023/01/20 08:41:38;;;;;;;103.30;80.60;;;;;;;0.25;74.95;100309.56;110206;1268;23051;-77
2023/01/20 08:44:09;;;;;;;103.60;77.90;;;;;;;0.28;74.70;100317.27;110138;1268;21977;-77
2023/01/20 08:46:39;;;;;;;101.70;76.80;;;;;;;0.31;74.50;100316.95;110050;1268;21992;-79
2023/01/20 08:49:13;;;;;;;99.80;79.70;;;;;;;0.33;74.33;100320.55;110084;1268;23116;-76
2023/01/20 08:51:43;;;;;;;105.00;83.00;;;;;;;0.37;74.32;100321.59;109741;1268;23705;-77
2023/01/20 08:54:11;;;;;;;100.40;77.80;;;;;;;0.42;74.13;100326.91;109973;1256;23038;-76
2023/01/20 08:56:39;;;;;;;100.90;78.90;;;;;;;0.42;73.84;100327.26;110156;1262;21983;-76
2023/01/20 08:59:07;;;;;;;95.20;72.30;;;;;;;0.44;73.78;100328.96;110578;1262;22006;-76
2023/01/20 09:01:36;;;;;;;89.50;69.60;;;;;;;0.49;73.78;100334.48;110555;1253;21989;-77
2023/01/20 09:04:05;;;;;;;88.00;69.70;;;;;;;0.56;73.80;100338.77;110085;1268;23714;-76
2023/01/20 09:06:45;;;;;;;90.80;70.90;;;;;;;0.62;73.55;100340.85;109991;1268;22000;-79
2023/01/20 09:09:16;;;;;;;95.00;70.60;;;;;;;0.71;73.57;100339.66;109968;1267;22030;-75
2023/01/20 09:11:50;;;;;;;96.10;71.50;;;;;;;0.80;73.35;100339.52;109976;1268;23605;-76
2023/01/20 09:14:22;;;;;;;98.00;72.20;;;;;;;0.88;73.26;100341.42;109792;1268;22988;-76
2023/01/20 09:16:50;;;;;;;110.60;86.50;;;;;;;0.98;73.18;100344.34;109725;1268;22990;-76
2023/01/20 09:19:18;;;;;;;106.50;83.00;;;;;;;1.06;73.01;100345.55;109749;1262;22764;-76
2023/01/20 09:21:46;;;;;;;121.60;91.80;;;;;;;1.10;72.52;100349.50;110018;1262;22700;-77
2023/01/20 09:24:15;;;;;;;127.60;90.90;;;;;;;1.11;72.21;100352.76;110427;1263;21988;-77
2023/01/20 09:26:43;;;;;;;109.50;84.60;;;;;;;1.15;72.06;100350.36;110686;1263;22048;-76
2023/01/20 09:29:14;;;;;;;69.80;57.50;;;;;;;1.17;71.75;100345.73;110161;1262;23026;-78
2023/01/20 09:31:49;;;;;;;82.40;61.60;;;;;;;1.23;71.68;100346.08;109959;1269;23052;-76
2023/01/20 09:34:23;;;;;;;70.00;57.70;;;;;;;1.27;71.59;100343.67;109945;1269;23653;-76
2023/01/20 09:36:57;;;;;;;64.50;54.30;;;;;;;1.31;71.42;100342.30;110027;1268;23121;-75
2023/01/20 09:45:50;;;;;;;79.60;64.60;;;;;;;1.44;70.87;100354.65;110011;1268;22572;-75
2023/01/20 09:54:37;;;;;;;101.30;76.40;;;;;;;1.52;70.48;100353.95;110525;1262;23741;-75
2023/01/20 09:57:07;;;;;;;93.20;70.60;;;;;;;1.55;70.23;100355.15;110389;1262;23114;-75
2023/01/20 09:59:43;;;;;;;93.30;71.00;;;;;;;1.60;69.96;100355.84;110451;1262;23628;-74
2023/01/20 10:02:24;;;;;;;96.20;74.20;;;;;;;1.65;69.78;100357.21;110125;1262;21973;-74
2023/01/20 10:04:59;;;;;;;94.50;73.70;;;;;;;1.71;69.55;100353.24;110601;1262;21995;-76
2023/01/20 10:08:10;;;;;;;84.50;66.20;;;;;;;1.77;69.36;100354.09;110589;1262;23596;-75
2023/01/20 10:11:05;;;;;;;79.50;61.70;;;;;;;1.77;69.01;100350.83;109574;1271;22009;-77
2023/01/20 10:13:55;;;;;;;80.70;62.20;;;;;;;1.80;68.96;100348.26;109583;1266;24435;-75
2023/01/20 10:16:36;;;;;;;83.50;65.30;;;;;;;1.88;68.90;100348.76;109346;1271;21988;-76
2023/01/20 10:19:29;;;;;;;85.10;65.50;;;;;;;1.96;68.68;100346.67;109842;1268;23055;-76
2023/01/20 10:22:16;;;;;;;;;;;;;;;2.04;68.51;100344.23;109650;1270;21978;-76
2023/01/20 10:25:07;;;;;;;113.00;82.50;;;;;;;2.07;68.63;100338.92;109599;1270;23725;-75
2023/01/20 10:27:41;;;;;;;105.40;82.80;;;;;;;2.18;68.45;100338.38;109538;1271;22459;-76
2023/01/20 10:30:12;;;;;;;105.30;83.00;;;;;;;2.30;68.16;100336.77;109262;1271;22092;-75
2023/01/20 10:33:09;;;;;;;92.90;74.70;;;;;;;2.40;67.97;100336.90;109468;1271;21975;-76
2023/01/20 10:35:46;;;;;;;98.60;77.80;;;;;;;2.47;67.69;100329.14;109557;1269;23609;-76
2023/01/20 10:39:04;;;;;;;101.10;81.90;;;;;;;2.51;67.19;100328.78;109622;1269;22189;-76
2023/01/20 10:41:46;;;;;;;92.50;75.00;;;;;;;2.53;67.06;100325.85;108821;1277;22342;-76
2023/01/20 10:44:15;;;;;;;101.30;80.80;;;;;;;2.57;66.82;100322.90;108949;1277;22992;-76
2023/01/20 10:47:18;;;;;;;93.80;74.50;;;;;;;2.64;66.89;100326.30;109119;1269;23772;-76
2023/01/20 10:49:56;;;;;;;93.60;77.10;;;;;;;2.71;66.70;100332.61;110012;1268;21986;-76
2023/01/20 10:52:57;;;;;;;87.30;72.30;;;;;;;2.75;66.20;100331.56;109864;1269;22031;-76
2023/01/20 10:55:47;;;;;;;80.30;69.80;;;;;;;2.79;65.89;100333.77;109690;1269;23621;-74
2023/01/20 10:58:42;;;;;;;84.20;72.20;;;;;;;2.87;65.62;100337.16;109331;1272;23633;-75
2023/01/20 11:01:16;;;;;;;79.40;68.20;;;;;;;3.00;65.50;100334.67;109324;1269;21993;-77
2023/01/20 11:03:48;;;;;;;93.20;76.60;;;;;;;3.18;65.21;100332.83;109280;1272;21987;-76
2023/01/20 11:06:22;;;;;;;89.80;75.10;;;;;;;3.38;65.04;100331.63;109442;1272;22030;-75
2023/01/20 11:08:50;;;;;;;89.40;77.90;;;;;;;3.54;64.62;100333.20;109336;1273;23852;-77
2023/01/20 11:11:22;;;;;;;91.30;78.40;;;;;;;3.61;64.26;100337.77;109404;1273;23731;-78
2023/01/20 11:13:51;;;;;;;90.20;80.30;;;;;;;3.72;64.35;100344.05;109302;1273;21988;-78
2023/01/20 11:16:24;;;;;;;105.80;88.20;;;;;;;3.85;64.00;100351.31;109600;1263;22667;-77
2023/01/20 11:19:02;;;;;;;101.00;85.90;;;;;;;3.93;63.57;100354.33;110458;1263;21979;-75
2023/01/20 11:21:35;;;;;;;105.40;85.30;;;;;;;3.87;62.87;100354.57;110360;1263;23050;-75
2023/01/20 11:24:32;;;;;;;94.20;80.20;;;;;;;3.81;62.71;100357.38;110541;1262;21988;-77
2023/01/20 11:27:15;;;;;;;96.80;82.10;;;;;;;3.63;62.04;100363.58;110560;1262;23596;-76
2023/01/20 11:29:51;;;;;;;95.90;82.00;;;;;;;3.44;61.81;100361.33;110475;1262;22010;-78
2023/01/20 11:32:38;;;;;;;98.00;80.10;;;;;;;3.31;61.79;100359.54;110474;1262;23861;-77
2023/01/20 11:35:25;;;;;;;92.90;79.60;;;;;;;3.21;61.85;100360.83;110295;1262;22718;-75
2023/01/20 11:37:53;;;;;;;97.40;83.90;;;;;;;3.11;61.83;100358.48;110456;1262;21965;-75
2023/01/20 11:40:25;;;;;;;98.10;83.10;;;;;;;3.04;61.82;100361.63;110288;1262;22391;-76